createdAt,value
2019-04-07T00:01:51.469Z,54.10
2019-04-07T00:04:17.681Z,55.30
2019-04-07T00:06:43.987Z,49.05
2019-04-07T00:09:10.820Z,49.95
2019-04-07T00:11:37.210Z,49.10
2019-04-07T00:14:04.049Z,58.58
2019-04-07T00:16:30.914Z,49.73
2019-04-07T00:18:57.130Z,51.55
2019-04-07T00:21:24.043Z,52.38
2019-04-07T00:23:50.748Z,52.00
2019-04-07T00:26:17.106Z,49.53
2019-04-07T00:28:43.731Z,54.23
2019-04-07T00:31:10.046Z,48.87
2019-04-07T00:33:36.300Z,51.23
2019-04-07T00:36:02.788Z,55.10
2019-04-07T00:38:29.342Z,51.85
2019-04-07T00:40:55.798Z,51.05
2019-04-07T00:43:22.249Z,48.30
2019-04-07T00:45:49.194Z,50.00
2019-04-07T00:48:15.694Z,50.88
2019-04-07T00:50:41.973Z,50.83
2019-04-07T00:53:08.854Z,55.40
2019-04-07T00:55:35.356Z,51.02
2019-04-07T00:58:01.694Z,58.45
2019-04-07T01:00:30.123Z,53.15
2019-04-07T01:02:56.805Z,57.03
2019-04-07T01:05:34.243Z,48.20
2019-04-07T01:07:51.226Z,47.95
2019-04-07T01:10:17.582Z,55.88
2019-04-07T01:12:44.468Z,57.33
2019-04-07T01:15:11.823Z,51.88
2019-04-07T01:17:39.210Z,51.58
2019-04-07T01:20:06.417Z,53.08
2019-04-07T01:22:33.061Z,53.55
2019-04-07T01:24:59.544Z,56.60
2019-04-07T01:27:25.970Z,55.88
2019-04-07T01:29:52.262Z,55.83
2019-04-07T01:32:19.192Z,50.85
2019-04-07T01:34:45.778Z,53.98
2019-04-07T01:37:12.188Z,57.27
2019-04-07T01:39:38.556Z,49.55
2019-04-07T01:42:15.869Z,49.90
2019-04-07T01:45:00.481Z,48.78
2019-04-07T01:47:28.928Z,55.33
2019-04-07T01:50:00.502Z,50.35
2019-04-07T01:52:28.666Z,54.70
2019-04-07T01:55:13.574Z,58.85
2019-04-07T01:57:44.441Z,53.00
2019-04-07T02:00:18.866Z,57.35
2019-04-07T02:02:53.027Z,53.15
2019-04-07T02:05:37.604Z,52.93
2019-04-07T02:08:22.131Z,53.48
2019-04-07T02:10:53.205Z,59.73
2019-04-07T02:13:24.465Z,56.42
2019-04-07T02:16:01.807Z,51.08
2019-04-07T02:18:30.098Z,54.58
2019-04-07T02:20:58.955Z,58.25
2019-04-07T02:23:30.205Z,53.60
2019-04-07T02:26:13.632Z,57.45
2019-04-07T02:28:44.655Z,50.43
2019-04-07T02:31:15.390Z,57.62
2019-04-07T02:33:52.506Z,49.90
2019-04-07T02:36:31.345Z,53.75
2019-04-07T02:39:02.769Z,50.67
2019-04-07T02:41:47.307Z,56.58
2019-04-07T02:44:31.501Z,54.33
2019-04-07T02:47:06.398Z,55.28
2019-04-07T02:49:35.517Z,54.30
2019-04-07T02:52:04.057Z,52.70
2019-04-07T02:54:42.099Z,55.80
2019-04-07T02:57:11.314Z,59.85
2019-04-07T02:59:48.672Z,52.90
2019-04-07T03:02:35.004Z,53.25
2019-04-07T03:05:04.150Z,54.60
2019-04-07T03:07:39.153Z,60.52
2019-04-07T03:10:08.924Z,57.40
2019-04-07T03:12:55.385Z,56.77
2019-04-07T03:15:40.845Z,51.73
2019-04-07T03:18:10.192Z,52.88
2019-04-07T03:20:51.362Z,58.10
2019-04-07T03:23:31.751Z,55.08
2019-04-07T03:26:00.862Z,54.75
2019-04-07T03:28:33.036Z,58.28
2019-04-07T03:31:02.206Z,54.77
2019-04-07T03:33:40.750Z,58.30
2019-04-07T03:36:10.855Z,52.17
2019-04-07T03:38:41.153Z,57.13
2019-04-07T03:41:27.807Z,56.37
2019-04-07T03:44:09.363Z,54.83
2019-04-07T03:46:49.515Z,58.35
2019-04-07T03:49:18.753Z,57.00
2019-04-07T03:51:56.299Z,60.05
2019-04-07T03:54:24.660Z,65.57
2019-04-07T03:56:53.014Z,63.85
2019-04-07T03:59:33.366Z,58.30
2019-04-07T04:02:19.662Z,56.30
2019-04-07T04:04:47.837Z,54.08
2019-04-07T04:07:28.352Z,54.95
2019-04-07T04:09:52.016Z,55.03
2019-04-07T04:12:21.230Z,57.93
2019-04-07T04:14:55.310Z,57.80
2019-04-07T04:17:21.623Z,56.37
2019-04-07T04:19:48.172Z,54.58
2019-04-07T04:22:14.612Z,59.93
2019-04-07T04:24:41.013Z,55.00
2019-04-07T04:27:07.348Z,61.42
2019-04-07T04:29:33.616Z,53.90
2019-04-07T04:31:59.910Z,55.58
2019-04-07T04:34:27.081Z,58.60
2019-04-07T04:36:54.339Z,52.70
2019-04-07T04:39:21.197Z,55.48
2019-04-07T04:41:47.403Z,56.85
2019-04-07T04:44:14.304Z,54.05
2019-04-07T04:46:41.115Z,55.05
2019-04-07T04:49:07.797Z,51.40
2019-04-07T04:51:36.974Z,57.80
2019-04-07T04:54:02.291Z,52.80
2019-04-07T04:56:28.847Z,55.10
2019-04-07T04:58:55.161Z,55.67
2019-04-07T05:01:21.927Z,56.20
2019-04-07T05:03:48.262Z,60.17
2019-04-07T05:06:14.577Z,56.83
2019-04-07T05:08:40.940Z,55.33
2019-04-07T05:11:07.846Z,53.50
2019-04-07T05:13:35.029Z,53.30
2019-04-07T05:16:02.644Z,52.60
2019-04-07T05:18:29.023Z,56.75
2019-04-07T05:20:55.397Z,59.27
2019-04-07T05:23:21.791Z,60.23
2019-04-07T05:25:48.185Z,55.92
2019-04-07T05:28:14.548Z,55.73
2019-04-07T05:30:41.447Z,55.58
2019-04-07T05:33:07.944Z,55.33
2019-04-07T05:35:35.068Z,53.87
2019-04-07T05:38:04.025Z,57.43
2019-04-07T05:40:29.528Z,54.90
2019-04-07T05:42:55.913Z,55.08
2019-04-07T05:45:22.683Z,51.33
2019-04-07T05:47:50.784Z,53.65
2019-04-07T05:50:17.228Z,58.78
2019-04-07T05:52:43.499Z,61.02
2019-04-07T05:55:10.846Z,54.55
2019-04-07T05:57:37.802Z,53.48
2019-04-07T06:00:08.056Z,58.85
2019-04-07T06:02:34.344Z,49.53
2019-04-07T06:05:01.243Z,58.87
2019-04-07T06:07:31.261Z,52.70
2019-04-07T06:09:55.756Z,52.58
2019-04-07T06:12:22.663Z,52.20
2019-04-07T06:14:49.748Z,60.78
2019-04-07T06:17:16.279Z,56.95
2019-04-07T06:19:42.484Z,54.58
2019-04-07T06:22:10.076Z,53.95
2019-04-07T06:24:36.517Z,56.70
2019-04-07T06:27:03.336Z,53.25
2019-04-07T06:29:30.131Z,48.50
2019-04-07T06:31:57.743Z,55.85
2019-04-07T06:34:24.948Z,53.30
2019-04-07T06:36:53.655Z,55.15
2019-04-07T06:39:20.083Z,54.50
2019-04-07T06:41:46.575Z,53.55
2019-04-07T06:44:15.846Z,50.08
2019-04-07T06:46:52.476Z,57.25
2019-04-07T06:49:20.803Z,52.48
2019-04-07T06:51:49.048Z,50.50
2019-04-07T06:54:26.568Z,47.55
2019-04-07T06:57:04.338Z,46.85
2019-04-07T06:59:30.573Z,49.95
2019-04-07T07:02:15.385Z,47.50
2019-04-07T07:04:49.748Z,51.95
2019-04-07T07:07:27.105Z,50.03
2019-04-07T07:09:59.753Z,48.10
2019-04-07T07:12:32.291Z,49.13
2019-04-07T07:14:56.119Z,46.70
2019-04-07T07:17:35.553Z,50.43
2019-04-07T07:20:12.930Z,50.58
2019-04-07T07:22:50.770Z,50.03
2019-04-07T07:25:18.064Z,44.03
2019-04-07T07:27:44.538Z,46.33
2019-04-07T07:30:10.967Z,51.95
2019-04-07T07:32:38.925Z,46.20
2019-04-07T07:35:06.257Z,45.43
2019-04-07T07:37:33.858Z,43.50
2019-04-07T07:40:00.973Z,46.50
2019-04-07T07:42:27.769Z,43.25
2019-04-07T07:44:54.309Z,43.35
2019-04-07T07:47:22.533Z,44.33
2019-04-07T07:49:48.801Z,43.08
2019-04-07T07:52:18.709Z,42.50
2019-04-07T07:54:45.852Z,43.20
2019-04-07T07:57:12.285Z,41.45
2019-04-07T07:59:39.625Z,39.55
2019-04-07T08:02:06.711Z,37.60
2019-04-07T08:04:33.486Z,38.85
2019-04-07T08:07:02.239Z,39.38
2019-04-07T08:09:28.311Z,40.85
2019-04-07T08:11:55.295Z,38.45
2019-04-07T08:14:21.736Z,37.42
2019-04-07T08:16:48.969Z,39.05
2019-04-07T08:19:15.586Z,38.25
2019-04-07T08:21:43.595Z,38.65
2019-04-07T08:24:10.247Z,34.23
2019-04-07T08:26:36.800Z,36.58
2019-04-07T08:29:05.996Z,37.08
2019-04-07T08:31:32.618Z,36.30
2019-04-07T08:34:00.022Z,39.80
2019-04-07T08:36:27.672Z,37.03
2019-04-07T08:38:56.099Z,36.35
2019-04-07T08:41:23.413Z,37.05
2019-04-07T08:43:53.268Z,36.33
2019-04-07T08:46:18.873Z,34.85
2019-04-07T08:48:45.428Z,36.70
2019-04-07T08:51:12.063Z,33.28
2019-04-07T08:53:38.900Z,33.00
2019-04-07T08:56:06.789Z,33.67
2019-04-07T08:58:37.929Z,35.20
2019-04-07T09:01:02.167Z,33.25
2019-04-07T09:03:29.205Z,32.35
2019-04-07T09:05:57.413Z,30.72
2019-04-07T09:08:24.086Z,33.53
2019-04-07T09:11:07.864Z,32.53
2019-04-07T09:13:34.269Z,30.12
2019-04-07T09:16:02.662Z,33.55
2019-04-07T09:18:37.378Z,33.80
2019-04-07T09:21:15.623Z,32.23
2019-04-07T09:23:50.740Z,29.30
2019-04-07T09:26:22.911Z,32.08
2019-04-07T09:28:55.803Z,28.07
2019-04-07T09:31:30.396Z,29.75
2019-04-07T09:33:58.648Z,29.23
2019-04-07T09:36:36.370Z,31.52
2019-04-07T09:39:06.836Z,30.50
2019-04-07T09:41:35.259Z,26.48
2019-04-07T09:44:13.592Z,26.75
2019-04-07T09:46:59.602Z,28.42
2019-04-07T09:49:56.309Z,29.72
2019-04-07T09:52:25.422Z,28.23
2019-04-07T09:55:10.476Z,25.50
2019-04-07T09:57:42.053Z,23.92
2019-04-07T10:00:28.856Z,23.07
2019-04-07T10:03:09.799Z,23.05
2019-04-07T10:05:42.767Z,25.08
2019-04-07T10:08:26.429Z,22.85
2019-04-07T10:11:04.206Z,22.22
2019-04-07T10:13:45.248Z,21.00
2019-04-07T10:16:25.821Z,18.62
2019-04-07T10:19:10.964Z,19.48
2019-04-07T10:21:56.106Z,20.32
2019-04-07T10:24:39.397Z,18.07
2019-04-07T10:27:10.876Z,19.23
2019-04-07T10:29:45.023Z,18.20
2019-04-07T10:32:26.750Z,17.25
2019-04-07T10:35:12.494Z,17.45
2019-04-07T10:37:59.042Z,16.52
2019-04-07T10:40:31.124Z,17.23
2019-04-07T10:42:59.779Z,18.65
2019-04-07T10:45:34.061Z,16.90
2019-04-07T10:48:09.160Z,15.68
2019-04-07T10:50:52.144Z,16.35
2019-04-07T10:53:20.653Z,19.25
2019-04-07T10:55:49.504Z,16.93
2019-04-07T10:58:20.858Z,18.98
2019-04-07T11:01:00.983Z,18.80
2019-04-07T11:03:45.836Z,18.70
2019-04-07T11:06:22.802Z,17.05
2019-04-07T11:08:51.796Z,15.75
2019-04-07T11:11:23.155Z,16.90
2019-04-07T11:14:06.892Z,17.87
2019-04-07T11:16:35.189Z,20.10
2019-04-07T11:19:09.785Z,16.60
2019-04-07T11:21:55.591Z,15.65
2019-04-07T11:24:23.987Z,17.95
2019-04-07T11:26:58.146Z,17.98
2019-04-07T11:29:28.310Z,14.80
2019-04-07T11:32:13.908Z,17.77
2019-04-07T11:34:45.488Z,15.35
2019-04-07T11:37:16.733Z,16.45
2019-04-07T11:39:54.373Z,16.15
2019-04-07T11:42:23.017Z,17.27
2019-04-07T11:44:57.521Z,18.23
2019-04-07T11:47:28.739Z,16.00
2019-04-07T11:50:13.522Z,16.82
2019-04-07T11:52:44.622Z,16.85
2019-04-07T11:55:19.040Z,16.70
2019-04-07T11:58:10.738Z,17.07
2019-04-07T12:00:45.178Z,16.25
2019-04-07T12:03:19.210Z,18.00
2019-04-07T12:05:48.429Z,19.90
2019-04-07T12:08:35.872Z,18.32
2019-04-07T12:11:04.906Z,18.02
2019-04-07T12:13:34.893Z,16.77
2019-04-07T12:16:15.669Z,15.95
2019-04-07T12:19:00.225Z,14.98
2019-04-07T12:21:43.842Z,14.23
2019-04-07T12:24:12.385Z,15.98
2019-04-07T12:27:01.070Z,20.12
2019-04-07T12:29:29.072Z,14.55
2019-04-07T12:32:06.167Z,14.45
2019-04-07T12:34:37.341Z,16.93
2019-04-07T12:37:23.826Z,16.90
2019-04-07T12:39:57.906Z,15.80
2019-04-07T12:42:31.911Z,13.70
2019-04-07T12:45:06.086Z,16.10
2019-04-07T12:47:49.324Z,14.30
2019-04-07T12:50:19.741Z,15.85
2019-04-07T12:53:06.000Z,14.80
2019-04-07T12:55:37.295Z,14.55
2019-04-07T12:58:17.609Z,15.98
2019-04-07T13:00:57.815Z,14.73
2019-04-07T13:03:18.472Z,14.18
2019-04-07T13:05:46.848Z,13.30
2019-04-07T13:08:24.134Z,12.60
2019-04-07T13:10:56.993Z,15.65
2019-04-07T13:13:31.316Z,15.55
2019-04-07T13:16:10.161Z,17.65
2019-04-07T13:18:54.298Z,16.05
2019-04-07T13:21:24.821Z,14.95
2019-04-07T13:24:12.698Z,16.87
2019-04-07T13:26:56.194Z,14.30
2019-04-07T13:29:27.962Z,13.15
2019-04-07T13:31:58.046Z,16.10
2019-04-07T13:34:35.134Z,15.98
2019-04-07T13:37:15.644Z,13.20
2019-04-07T13:40:01.214Z,19.42
2019-04-07T13:42:44.541Z,20.30
2019-04-07T13:45:14.241Z,21.17
2019-04-07T13:47:48.749Z,14.28
2019-04-07T13:50:23.333Z,14.53
2019-04-07T13:53:08.879Z,16.00
2019-04-07T13:55:41.111Z,15.50
2019-04-07T13:58:23.526Z,15.13
2019-04-07T14:00:52.057Z,16.65
2019-04-07T14:03:24.453Z,15.25
2019-04-07T14:06:14.491Z,13.03
2019-04-07T14:08:51.713Z,13.53
2019-04-07T14:11:32.768Z,13.95
2019-04-07T14:14:11.129Z,13.22
2019-04-07T14:16:57.424Z,14.05
2019-04-07T14:19:41.061Z,13.35
2019-04-07T14:22:12.084Z,30.37
2019-04-07T14:24:43.653Z,14.85
2019-04-07T14:27:12.226Z,14.20
2019-04-07T14:29:40.645Z,17.57
2019-04-07T14:32:09.912Z,14.45
2019-04-07T14:34:50.246Z,14.03
2019-04-07T14:37:20.265Z,14.38
2019-04-07T14:39:52.189Z,15.58
2019-04-07T14:42:29.453Z,20.75
2019-04-07T14:44:57.603Z,16.77
2019-04-07T14:47:42.500Z,15.18
2019-04-07T14:50:20.041Z,16.45
2019-04-07T14:52:48.330Z,15.05
2019-04-07T14:55:19.579Z,14.65
2019-04-07T14:58:06.677Z,14.05
2019-04-07T15:00:51.292Z,16.52
2019-04-07T15:03:17.712Z,16.30
2019-04-07T15:05:49.425Z,15.93
2019-04-07T15:08:18.097Z,14.43
2019-04-07T15:10:47.344Z,17.73
2019-04-07T15:13:21.307Z,16.52
2019-04-07T15:15:49.939Z,19.20
2019-04-07T15:18:16.496Z,16.02
2019-04-07T15:20:43.412Z,15.70
2019-04-07T15:23:10.088Z,16.07
2019-04-07T15:25:40.317Z,18.67
2019-04-07T15:28:04.667Z,15.83
2019-04-07T15:30:31.105Z,15.83
2019-04-07T15:32:59.458Z,17.27
2019-04-07T15:35:26.423Z,13.53
2019-04-07T15:37:53.739Z,13.55
2019-04-07T15:40:20.370Z,13.65
2019-04-07T15:42:50.568Z,17.57
2019-04-07T15:45:15.132Z,19.55
2019-04-07T15:47:42.277Z,18.20
2019-04-07T15:50:09.631Z,18.35
2019-04-07T15:52:36.918Z,15.10
2019-04-07T15:55:06.306Z,15.13
2019-04-07T15:57:32.742Z,14.85
2019-04-07T16:00:01.676Z,18.02
2019-04-07T16:02:27.567Z,16.85
2019-04-07T16:04:57.780Z,16.00
2019-04-07T16:07:22.821Z,15.25
2019-04-07T16:09:54.683Z,17.32
2019-04-07T16:12:17.280Z,18.67
2019-04-07T16:14:45.900Z,14.00
2019-04-07T16:17:12.161Z,15.60
2019-04-07T16:19:44.394Z,15.95
2019-04-07T16:22:12.594Z,15.68
2019-04-07T16:24:37.972Z,19.17
2019-04-07T16:27:06.726Z,15.18
2019-04-07T16:29:33.012Z,14.20
2019-04-07T16:32:00.033Z,15.55
2019-04-07T16:34:26.427Z,16.87
2019-04-07T16:36:55.485Z,18.85
2019-04-07T16:39:21.080Z,19.62
2019-04-07T16:41:48.881Z,17.15
2019-04-07T16:44:15.900Z,20.30
2019-04-07T16:46:42.677Z,22.30
2019-04-07T16:49:11.382Z,25.43
2019-04-07T16:51:38.326Z,20.95
2019-04-07T16:54:08.057Z,22.20
2019-04-07T16:56:32.969Z,26.90
2019-04-07T16:59:01.282Z,30.27
2019-04-07T17:01:28.476Z,24.47
2019-04-07T17:03:55.362Z,23.92
2019-04-07T17:06:21.941Z,26.62
2019-04-07T17:08:51.166Z,40.15
2019-04-07T17:11:18.065Z,26.65
2019-04-07T17:13:44.504Z,22.07
2019-04-07T17:16:12.206Z,26.95
2019-04-07T17:18:41.243Z,20.60
2019-04-07T17:21:15.112Z,17.57
2019-04-07T17:23:42.640Z,24.98
2019-04-07T17:26:09.499Z,23.85
2019-04-07T17:28:36.541Z,24.50
2019-04-07T17:31:04.609Z,22.85
2019-04-07T17:33:35.146Z,23.60
2019-04-07T17:35:59.313Z,24.23
2019-04-07T17:38:28.023Z,20.20
2019-04-07T17:40:54.500Z,23.02
2019-04-07T17:43:31.169Z,18.17
2019-04-07T17:46:05.096Z,21.07
2019-04-07T17:48:44.029Z,28.85
2019-04-07T17:51:10.137Z,19.50
2019-04-07T17:53:55.209Z,23.35
2019-04-07T17:56:29.812Z,24.07
2019-04-07T17:59:08.752Z,21.97
2019-04-07T18:01:35.750Z,27.07
2019-04-07T18:04:04.054Z,19.77
2019-04-07T18:06:33.363Z,20.97
2019-04-07T18:09:20.910Z,25.27
2019-04-07T18:11:48.020Z,19.77
2019-04-07T18:14:22.407Z,20.60
2019-04-07T18:16:51.626Z,27.17
2019-04-07T18:19:37.590Z,23.07
2019-04-07T18:22:12.542Z,19.35
2019-04-07T18:24:49.424Z,19.30
2019-04-07T18:27:30.677Z,21.15
2019-04-07T18:30:00.744Z,21.85
2019-04-07T18:32:32.932Z,21.10
2019-04-07T18:35:17.572Z,25.17
2019-04-07T18:37:46.314Z,25.70
2019-04-07T18:40:14.918Z,25.15
2019-04-07T18:42:57.992Z,23.30
2019-04-07T18:45:30.756Z,23.62
2019-04-07T18:47:59.364Z,27.80
2019-04-07T18:50:28.629Z,24.47
2019-04-07T18:52:57.507Z,19.48
2019-04-07T18:55:30.055Z,20.40
2019-04-07T18:57:58.514Z,26.35
2019-04-07T19:00:43.436Z,25.30
2019-04-07T19:03:11.953Z,23.52
2019-04-07T19:05:54.145Z,20.77
2019-04-07T19:08:21.888Z,21.62
2019-04-07T19:11:12.358Z,21.33
2019-04-07T19:14:07.340Z,18.92
2019-04-07T19:16:23.220Z,19.05
2019-04-07T19:18:54.655Z,22.98
2019-04-07T19:21:28.667Z,22.20
2019-04-07T19:24:07.999Z,21.82
2019-04-07T19:26:42.190Z,21.70
2019-04-07T19:29:10.469Z,22.30
2019-04-07T19:31:48.067Z,21.05
2019-04-07T19:34:31.792Z,20.00
2019-04-07T19:37:19.314Z,19.12
2019-04-07T19:39:56.450Z,22.15
2019-04-07T19:42:27.368Z,19.87
2019-04-07T19:44:59.310Z,23.45
2019-04-07T19:47:44.538Z,18.80
2019-04-07T19:50:15.861Z,17.37
2019-04-07T19:52:44.609Z,21.75
2019-04-07T19:55:22.742Z,18.85
2019-04-07T19:57:51.553Z,19.30
2019-04-07T20:00:37.097Z,18.05
2019-04-07T20:03:24.238Z,21.45
2019-04-07T20:05:53.353Z,17.57
2019-04-07T20:08:38.633Z,19.92
2019-04-07T20:11:30.422Z,18.12
2019-04-07T20:13:58.935Z,19.98
2019-04-07T20:16:28.256Z,17.37
2019-04-07T20:19:11.353Z,18.42
2019-04-07T20:21:43.686Z,20.55
2019-04-07T20:24:15.746Z,20.62
2019-04-07T20:26:44.888Z,17.52
2019-04-07T20:29:17.119Z,17.07
2019-04-07T20:31:51.993Z,18.55
2019-04-07T20:34:25.220Z,18.95
2019-04-07T20:36:59.793Z,18.67
2019-04-07T20:39:36.907Z,18.50
2019-04-07T20:42:08.672Z,18.00
2019-04-07T20:44:39.975Z,16.35
2019-04-07T20:47:11.151Z,18.07
2019-04-07T20:49:50.293Z,19.32
2019-04-07T20:52:24.014Z,17.52
2019-04-07T20:54:51.216Z,19.95
2019-04-07T20:57:23.731Z,19.37
2019-04-07T21:00:06.593Z,16.75
2019-04-07T21:02:35.050Z,16.45
2019-04-07T21:05:03.551Z,18.07
2019-04-07T21:07:49.144Z,16.02
2019-04-07T21:10:24.267Z,21.17
2019-04-07T21:12:52.767Z,20.17
2019-04-07T21:15:25.871Z,20.77
2019-04-07T21:17:54.393Z,18.98
2019-04-07T21:20:39.162Z,20.23
2019-04-07T21:23:14.060Z,18.30
2019-04-07T21:25:55.477Z,17.73
2019-04-07T21:28:25.235Z,18.45
2019-04-07T21:31:14.165Z,16.85
2019-04-07T21:33:45.862Z,16.42
2019-04-07T21:36:14.289Z,17.52
2019-04-07T21:38:50.578Z,18.95
2019-04-07T21:41:34.790Z,18.42
2019-04-07T21:44:03.245Z,17.70
2019-04-07T21:46:37.445Z,16.73
2019-04-07T21:49:22.070Z,18.55
2019-04-07T21:51:53.161Z,19.17
2019-04-07T21:54:24.033Z,19.73
2019-04-07T21:56:52.175Z,19.40
2019-04-07T21:59:31.425Z,22.10
2019-04-07T22:02:12.189Z,20.02
2019-04-07T22:04:50.607Z,19.02
2019-04-07T22:07:33.521Z,20.02
2019-04-07T22:10:09.955Z,19.95
2019-04-07T22:12:36.362Z,20.65
2019-04-07T22:15:05.227Z,20.27
2019-04-07T22:17:34.429Z,20.37
2019-04-07T22:20:00.598Z,21.12
2019-04-07T22:22:27.676Z,18.73
2019-04-07T22:24:54.122Z,20.70
2019-04-07T22:27:24.545Z,18.30
2019-04-07T22:29:48.956Z,21.40
2019-04-07T22:32:19.219Z,20.40
2019-04-07T22:34:44.036Z,19.10
2019-04-07T22:37:10.579Z,20.08
2019-04-07T22:39:37.551Z,24.12
2019-04-07T22:42:04.158Z,19.98
2019-04-07T22:44:31.374Z,21.23
2019-04-07T22:46:58.429Z,21.68
2019-04-07T22:49:28.606Z,19.73
2019-04-07T22:51:54.842Z,21.37
2019-04-07T22:54:21.093Z,20.32
2019-04-07T22:56:47.477Z,20.82
2019-04-07T22:59:13.779Z,20.40
2019-04-07T23:01:40.953Z,22.40
2019-04-07T23:04:07.215Z,22.05
2019-04-07T23:06:34.126Z,22.87
2019-04-07T23:09:01.487Z,23.98
2019-04-07T23:11:27.951Z,22.05
2019-04-07T23:13:55.515Z,26.25
2019-04-07T23:16:21.898Z,25.35
2019-04-07T23:18:48.367Z,24.32
2019-04-07T23:21:14.989Z,22.20
2019-04-07T23:23:42.268Z,23.52
2019-04-07T23:26:09.524Z,27.27
2019-04-07T23:28:36.007Z,24.18
2019-04-07T23:31:03.234Z,25.75
2019-04-07T23:33:29.834Z,24.05
2019-04-07T23:35:56.237Z,26.95
2019-04-07T23:38:22.503Z,24.80
2019-04-07T23:40:49.417Z,26.23
2019-04-07T23:43:15.783Z,27.58
2019-04-07T23:45:42.167Z,27.45
2019-04-07T23:48:08.445Z,25.10
2019-04-07T23:50:35.490Z,27.37
2019-04-07T23:53:38.760Z,26.70
2019-04-07T23:56:05.917Z,29.63
2019-04-07T23:58:32.164Z,26.90
